Time;durP1;ratioP1;P1;durP2;ratioP2;P2;SDS_P1;SDS_P2;PMS_P1;PMS_P2;Temp;Humidity;BMP_temperature;BMP_pressure;BME280_temperature;BME280_humidity;BME280_pressure;Samples;Min_cycle;Max_cycle;Signal;HPM_P1;HPM_P2
2022/05/14 00:00:24;;;;;;;4.28;1.20;;;18.00;99.90;;;;;;6093901;23;20338;-81
2022/05/14 00:02:51;;;;;;;5.85;1.50;;;18.00;99.90;;;;;;6094150;23;20442;-81
2022/05/14 00:05:21;;;;;;;7.55;1.20;;;18.00;99.90;;;;;;6068409;23;20007;-80
2022/05/14 00:07:47;;;;;;;2.63;1.17;;;17.90;99.90;;;;;;6093751;23;20500;-81
2022/05/14 00:10:14;;;;;;;4.05;1.20;;;18.00;99.90;;;;;;6068436;23;20448;-81
2022/05/14 00:15:25;;;;;;;2.35;1.10;;;17.90;99.90;;;;;;6093936;23;20045;-81
2022/05/14 00:17:51;;;;;;;3.00;1.13;;;17.90;99.90;;;;;;6093826;23;20338;-81
2022/05/14 00:20:18;;;;;;;2.38;1.17;;;17.90;99.90;;;;;;6068366;23;20006;-81
2022/05/14 00:22:43;;;;;;;4.32;1.20;;;17.90;99.90;;;;;;6068328;23;20350;-81
2022/05/14 00:25:10;;;;;;;7.35;1.02;;;17.90;99.90;;;;;;6093798;23;20002;-81
2022/05/14 00:27:41;;;;;;;3.95;1.30;;;17.90;99.90;;;;;;6093637;23;20017;-81
2022/05/14 00:30:08;;;;;;;4.03;1.35;;;17.80;99.90;;;;;;6094136;23;20304;-81
2022/05/14 00:32:33;;;;;;;2.60;0.90;;;17.80;99.90;;;;;;6093700;23;20003;-81
2022/05/14 00:34:59;;;;;;;3.85;1.20;;;17.80;99.90;;;;;;6068370;23;20003;-80
2022/05/14 00:37:24;;;;;;;3.63;1.13;;;17.80;99.90;;;;;;6068352;23;20072;-82
2022/05/14 00:39:50;;;;;;;4.93;1.50;;;17.80;99.90;;;;;;6094057;23;20002;-80
2022/05/14 00:42:16;;;;;;;4.40;1.00;;;17.80;99.90;;;;;;6093879;23;20077;-80
2022/05/14 00:44:41;;;;;;;4.60;1.05;;;17.80;99.90;;;;;;6068315;23;20014;-80
2022/05/14 00:47:12;;;;;;;3.33;1.33;;;17.80;99.90;;;;;;6093648;23;20007;-80
2022/05/14 00:49:38;;;;;;;5.68;1.35;;;17.70;99.90;;;;;;6093767;23;20453;-80
2022/05/14 00:52:04;;;;;;;5.30;1.50;;;17.70;99.90;;;;;;6068591;23;20007;-80
2022/05/14 00:54:38;;;;;;;2.45;1.17;;;17.70;99.90;;;;;;6068095;23;20089;-80
2022/05/14 00:57:08;;;;;;;1.73;0.93;;;17.70;99.90;;;;;;6068095;23;20029;-80
2022/05/14 00:59:36;;;;;;;3.85;1.35;;;17.70;99.90;;;;;;6094418;23;20367;-80
2022/05/14 01:02:02;;;;;;;5.40;1.15;;;17.70;99.90;;;;;;6093654;23;20003;-80
2022/05/14 01:04:29;;;;;;;3.88;1.17;;;17.70;99.90;;;;;;6093643;23;19999;-80
2022/05/14 01:07:12;;;;;;;4.32;1.20;;;17.70;99.90;;;;;;6068114;23;20081;-80
2022/05/14 01:09:41;;;;;;;4.55;1.33;;;17.70;99.90;;;;;;6093999;23;20081;-80
2022/05/14 01:12:08;;;;;;;4.30;1.00;;;17.60;99.90;;;;;;6093628;23;19998;-80
2022/05/14 01:14:34;;;;;;;2.38;1.02;;;17.60;99.90;;;;;;6068083;23;20093;-80
2022/05/14 01:17:00;;;;;;;3.08;1.20;;;17.60;99.90;;;;;;6093604;23;20002;-80
2022/05/14 01:19:26;;;;;;;4.45;1.10;;;17.60;99.90;;;;;;6068104;23;20390;-80
2022/05/14 01:22:21;;;;;;;4.68;1.13;;;17.60;99.90;;;;;;6068006;23;20007;-80
2022/05/14 01:27:48;;;;;;;5.00;1.45;;;17.60;99.90;;;;;;6093879;23;20338;-80
2022/05/14 01:30:14;;;;;;;5.68;1.10;;;17.60;99.90;;;;;;6093497;23;20002;-80
2022/05/14 01:32:40;;;;;;;5.60;1.30;;;17.50;99.90;;;;;;6068036;23;20006;-80
2022/05/14 01:35:06;;;;;;;4.95;1.05;;;17.50;99.90;;;;;;6093635;23;20334;-80
2022/05/14 01:37:32;;;;;;;6.07;1.20;;;17.50;99.90;;;;;;6067965;23;20068;-80
2022/05/14 01:39:57;;;;;;;3.65;1.00;;;17.50;99.90;;;;;;6093561;23;20006;-80
2022/05/14 01:42:23;;;;;;;3.40;1.10;;;17.50;99.90;;;;;;6093904;23;20516;-80
2022/05/14 01:44:49;;;;;;;4.65;1.60;;;17.50;99.90;;;;;;6068089;23;20092;-80
2022/05/14 01:47:14;;;;;;;2.70;1.15;;;17.50;99.90;;;;;;6093417;23;20125;-80
2022/05/14 01:49:40;;;;;;;6.57;1.33;;;17.50;99.90;;;;;;6068005;23;20007;-80
2022/05/14 01:52:06;;;;;;;2.08;0.93;;;17.40;99.90;;;;;;6093883;23;20002;-80
2022/05/14 01:54:32;;;;;;;5.00;1.15;;;17.40;99.90;;;;;;6093008;23;20006;-80
2022/05/14 01:56:57;;;;;;;4.10;1.20;;;17.40;99.90;;;;;;6063076;23;20023;-80
2022/05/14 01:59:24;;;;;;;4.43;1.45;;;17.40;99.90;;;;;;6064700;23;20443;-80
2022/05/14 02:01:49;;;;;;;3.85;0.95;;;17.40;99.90;;;;;;6063147;23;20020;-80
2022/05/14 02:04:16;;;;;;;3.63;1.20;;;17.40;99.90;;;;;;6064666;23;20003;-81
2022/05/14 02:06:43;;;;;;;4.97;1.20;;;17.40;99.90;;;;;;6064538;23;20077;-81
2022/05/14 02:09:11;;;;;;;4.43;1.23;;;17.40;99.90;;;;;;6063168;23;20439;-80
2022/05/14 02:11:39;;;;;;;5.43;1.17;;;17.40;99.90;;;;;;6063081;23;20003;-80
2022/05/14 02:14:05;;;;;;;4.15;1.05;;;17.40;99.90;;;;;;6063130;23;20427;-80
2022/05/14 02:16:31;;;;;;;4.00;0.90;;;17.30;99.90;;;;;;6064604;23;20038;-80
2022/05/14 02:18:57;;;;;;;3.67;1.02;;;17.30;99.90;;;;;;6064567;23;19999;-80
2022/05/14 02:21:24;;;;;;;4.13;1.20;;;17.30;99.90;;;;;;6062995;23;20010;-79
2022/05/14 02:23:51;;;;;;;4.80;1.23;;;17.30;99.90;;;;;;6062989;23;20435;-79
2022/05/14 02:26:18;;;;;;;5.97;1.10;;;17.30;99.90;;;;;;6064528;23;19998;-80
2022/05/14 02:28:44;;;;;;;1.67;0.90;;;17.30;99.90;;;;;;6062927;23;20007;-80
2022/05/14 02:31:10;;;;;;;3.95;1.15;;;17.30;99.90;;;;;;6064848;23;20076;-80
2022/05/14 02:33:37;;;;;;;3.63;0.98;;;17.30;99.90;;;;;;6064481;23;19998;-80
2022/05/14 02:36:03;;;;;;;2.20;1.00;;;17.20;99.90;;;;;;6064812;23;20030;-80
2022/05/14 02:38:31;;;;;;;6.40;1.30;;;17.20;99.90;;;;;;6064461;23;20553;-80
2022/05/14 02:40:57;;;;;;;3.60;1.30;;;17.20;99.90;;;;;;6064398;23;20017;-80
2022/05/14 02:43:23;;;;;;;2.88;1.27;;;17.20;99.90;;;;;;6062904;23;20011;-80
2022/05/14 02:45:49;;;;;;;2.55;1.08;;;17.20;99.90;;;;;;6062887;23;20011;-80
2022/05/14 02:48:15;;;;;;;4.30;0.98;;;17.10;99.90;;;;;;6064671;23;20077;-79
2022/05/14 02:50:41;;;;;;;4.47;1.02;;;17.20;99.90;;;;;;6064769;23;20423;-80
2022/05/14 02:53:07;;;;;;;4.22;1.05;;;17.10;99.90;;;;;;6064397;23;20445;-80
2022/05/14 02:55:33;;;;;;;5.07;1.00;;;17.10;99.90;;;;;;6064960;23;20074;-79
2022/05/14 02:57:58;;;;;;;2.55;1.00;;;17.10;99.90;;;;;;6067738;23;20040;-80
2022/05/14 03:00:25;;;;;;;2.83;1.00;;;17.10;99.90;;;;;;6093128;23;20010;-80
2022/05/14 03:02:51;;;;;;;3.17;1.13;;;17.10;99.90;;;;;;6067484;23;20002;-80
2022/05/14 03:05:19;;;;;;;1.85;1.10;;;17.10;99.90;;;;;;6092938;23;20002;-80
2022/05/14 03:07:45;;;;;;;3.42;0.95;;;17.10;99.90;;;;;;6067376;23;20094;-80
2022/05/14 03:10:12;;;;;;;7.05;1.20;;;17.10;99.90;;;;;;6067441;23;20005;-80
2022/05/14 03:12:38;;;;;;;4.88;1.15;;;17.10;99.90;;;;;;6093013;23;20005;-80
2022/05/14 03:15:05;;;;;;;9.25;1.20;;;17.00;99.90;;;;;;6067446;23;20010;-80
2022/05/14 03:17:34;;;;;;;1.83;0.93;;;17.00;99.90;;;;;;6067511;23;20085;-80
2022/05/14 03:20:06;;;;;;;2.60;0.90;;;17.00;99.90;;;;;;6067353;23;20017;-80
2022/05/14 03:22:33;;;;;;;3.83;0.98;;;17.00;99.90;;;;;;6092944;23;20009;-80
2022/05/14 03:24:58;;;;;;;4.85;1.08;;;17.00;99.90;;;;;;6092860;23;20018;-79
2022/05/14 03:27:24;;;;;;;1.52;0.88;;;17.00;99.90;;;;;;6092826;23;20438;-79
2022/05/14 03:29:50;;;;;;;4.50;0.82;;;16.90;99.90;;;;;;6093170;23;20005;-79
2022/05/14 03:32:16;;;;;;;3.72;0.82;;;17.00;99.90;;;;;;6067190;23;20358;-79
2022/05/14 03:34:41;;;;;;;2.70;0.80;;;17.00;99.90;;;;;;6067258;23;20097;-79
2022/05/14 03:37:07;;;;;;;4.63;1.13;;;17.00;99.90;;;;;;6067287;23;20006;-79
2022/05/14 03:39:32;;;;;;;4.53;1.10;;;16.90;99.90;;;;;;6067281;23;20434;-79
2022/05/14 03:41:58;;;;;;;3.92;1.10;;;16.90;99.90;;;;;;6092726;23;20007;-79
2022/05/14 03:44:24;;;;;;;1.25;0.80;;;16.90;99.90;;;;;;6067113;23;20002;-79
2022/05/14 03:46:49;;;;;;;3.17;0.95;;;16.90;99.90;;;;;;6067107;23;20013;-79
2022/05/14 03:49:15;;;;;;;2.17;0.80;;;16.90;99.90;;;;;;6067152;23;20033;-80
2022/05/14 03:51:41;;;;;;;4.60;1.20;;;16.90;99.90;;;;;;6066977;23;20002;-80
2022/05/14 03:54:07;;;;;;;2.92;0.95;;;16.80;99.90;;;;;;6092878;23;20003;-80
2022/05/14 03:56:32;;;;;;;2.95;0.80;;;16.80;99.90;;;;;;6066709;23;20015;-79
2022/05/14 03:58:58;;;;;;;4.00;1.05;;;16.80;99.90;;;;;;6066909;23;20013;-79
2022/05/14 04:01:24;;;;;;;6.85;1.05;;;16.80;99.90;;;;;;6066892;23;20422;-79
2022/05/14 04:03:50;;;;;;;2.53;0.90;;;16.80;99.90;;;;;;6092811;23;20005;-80
2022/05/14 04:06:16;;;;;;;7.30;1.10;;;16.80;99.90;;;;;;6092488;23;20330;-80
2022/05/14 04:08:42;;;;;;;1.85;0.80;;;16.80;99.90;;;;;;6092403;23;20006;-80
2022/05/14 04:11:08;;;;;;;4.10;1.08;;;16.80;99.90;;;;;;6066958;23;20061;-79
2022/05/14 04:13:35;;;;;;;1.70;0.80;;;16.70;99.90;;;;;;6066760;23;20009;-80
2022/05/14 04:16:00;;;;;;;2.25;0.73;;;16.80;99.90;;;;;;6066844;23;20002;-80
2022/05/14 04:18:26;;;;;;;6.68;1.13;;;16.70;99.90;;;;;;6093058;23;20090;-79
2022/05/14 04:20:54;;;;;;;6.00;0.80;;;16.70;99.90;;;;;;6068096;23;20006;-79
2022/05/14 04:23:20;;;;;;;4.60;1.13;;;16.70;99.90;;;;;;6093614;23;20064;-79
2022/05/14 04:25:49;;;;;;;6.72;0.95;;;16.70;99.90;;;;;;6093893;23;20448;-80
2022/05/14 04:28:15;;;;;;;4.00;1.15;;;16.70;99.90;;;;;;6068033;23;20007;-80
2022/05/14 04:30:40;;;;;;;2.30;1.00;;;16.70;99.90;;;;;;6093551;23;20003;-80
2022/05/14 04:33:06;;;;;;;3.15;1.13;;;16.70;99.90;;;;;;6093614;23;20370;-80
2022/05/14 04:35:31;;;;;;;5.05;1.10;;;16.70;99.90;;;;;;6068108;23;20442;-80
2022/05/14 04:37:57;;;;;;;3.05;1.05;;;16.70;99.90;;;;;;6068068;23;20006;-80
2022/05/14 04:40:23;;;;;;;3.10;0.98;;;16.60;99.90;;;;;;6068098;23;20006;-80
2022/05/14 04:42:49;;;;;;;2.00;1.02;;;16.70;99.90;;;;;;6094276;23;20015;-79
2022/05/14 04:45:15;;;;;;;3.00;1.10;;;16.70;99.90;;;;;;6068123;23;20010;-80
2022/05/14 04:47:41;;;;;;;3.00;1.00;;;16.70;99.90;;;;;;6093415;23;20013;-80
2022/05/14 04:50:08;;;;;;;4.53;1.15;;;16.70;99.90;;;;;;6068126;23;20086;-81
2022/05/14 04:52:33;;;;;;;3.03;1.10;;;16.70;99.90;;;;;;6093561;23;19999;-81
2022/05/14 04:54:59;;;;;;;4.65;1.10;;;16.60;99.90;;;;;;6093569;23;20007;-81
2022/05/14 04:57:25;;;;;;;2.67;1.10;;;16.60;99.90;;;;;;6093501;23;20092;-82
2022/05/14 04:59:52;;;;;;;4.97;1.10;;;16.60;99.90;;;;;;6093990;23;20319;-81
2022/05/14 05:05:03;;;;;;;4.65;1.10;;;16.60;99.90;;;;;;6093686;23;20018;-81
2022/05/14 05:07:29;;;;;;;3.42;1.13;;;16.60;99.90;;;;;;6067859;23;20010;-81
2022/05/14 05:09:54;;;;;;;2.67;0.93;;;16.60;99.90;;;;;;6068151;23;20009;-81
2022/05/14 05:12:20;;;;;;;3.70;1.08;;;16.60;99.90;;;;;;6068125;23;20334;-81
2022/05/14 05:14:46;;;;;;;7.88;1.25;;;16.60;99.90;;;;;;6068088;23;20030;-81
2022/05/14 05:17:11;;;;;;;4.82;1.52;;;16.60;99.90;;;;;;6093564;23;20009;-81
2022/05/14 05:19:37;;;;;;;3.53;1.10;;;16.60;99.90;;;;;;6093640;23;20017;-81
2022/05/14 05:22:04;;;;;;;5.65;1.23;;;16.60;99.90;;;;;;6093990;23;20009;-81
2022/05/14 05:24:30;;;;;;;2.60;1.10;;;16.60;99.90;;;;;;6093632;23;20010;-81
2022/05/14 05:26:55;;;;;;;5.80;1.05;;;16.60;99.90;;;;;;6067879;23;20010;-81
2022/05/14 05:29:21;;;;;;;3.90;1.40;;;16.60;99.90;;;;;;6093555;23;20025;-81
2022/05/14 05:31:47;;;;;;;4.75;1.00;;;16.60;99.90;;;;;;6068097;23;20060;-80
2022/05/14 05:34:12;;;;;;;3.03;0.88;;;16.60;99.90;;;;;;6093570;23;19998;-81
2022/05/14 05:36:38;;;;;;;3.13;1.00;;;16.60;99.90;;;;;;6067895;23;20012;-81
2022/05/14 05:39:04;;;;;;;3.03;1.40;;;16.60;99.90;;;;;;6093865;23;20009;-80
2022/05/14 05:41:30;;;;;;;4.35;1.38;;;16.60;99.90;;;;;;6067942;23;20007;-80
2022/05/14 05:43:55;;;;;;;2.30;1.00;;;16.60;99.90;;;;;;6093502;23;20419;-81
2022/05/14 05:46:21;;;;;;;3.92;1.05;;;16.60;99.90;;;;;;6067878;23;20011;-81
2022/05/14 05:48:47;;;;;;;3.13;1.35;;;16.60;99.90;;;;;;6067859;23;20078;-81
2022/05/14 05:51:13;;;;;;;7.53;1.10;;;16.60;99.90;;;;;;6094223;23;20108;-80
2022/05/14 05:59:07;;;;;;;2.05;0.85;;;16.60;99.90;;;;;;6093474;23;20338;-80
2022/05/14 06:01:33;;;;;;;3.05;1.10;;;16.60;99.90;;;;;;6093385;23;20431;-81
2022/05/14 06:03:58;;;;;;;1.73;0.90;;;16.60;99.90;;;;;;6093708;23;20007;-80
2022/05/14 06:06:24;;;;;;;2.20;0.80;;;16.60;99.90;;;;;;6067973;23;20434;-81
2022/05/14 06:08:50;;;;;;;2.00;1.08;;;16.60;99.90;;;;;;6093383;23;20038;-81
2022/05/14 06:11:17;;;;;;;3.45;0.82;;;16.60;99.90;;;;;;6093538;23;20002;-81
2022/05/14 06:13:44;;;;;;;6.15;1.02;;;16.70;99.90;;;;;;6093459;23;20097;-80
2022/05/14 06:16:10;;;;;;;3.53;0.90;;;16.70;99.90;;;;;;6067863;23;20094;-80
2022/05/14 06:18:37;;;;;;;3.88;0.90;;;16.70;99.90;;;;;;6067961;23;20082;-81
2022/05/14 06:21:04;;;;;;;3.92;0.88;;;16.70;99.90;;;;;;6067832;23;20011;-80
2022/05/14 06:23:30;;;;;;;6.00;0.93;;;16.70;99.90;;;;;;6093350;23;20004;-80
2022/05/14 06:25:56;;;;;;;3.13;1.23;;;16.70;99.90;;;;;;6068129;23;20444;-80
2022/05/14 06:28:21;;;;;;;2.33;0.80;;;16.70;99.90;;;;;;6067730;23;20315;-80
2022/05/14 06:30:47;;;;;;;1.35;0.70;;;16.70;99.90;;;;;;6067876;23;20006;-81
2022/05/14 06:33:13;;;;;;;3.33;1.30;;;16.80;99.90;;;;;;6093705;23;19998;-80
2022/05/14 06:35:39;;;;;;;5.47;1.40;;;16.70;99.90;;;;;;6093272;23;20002;-80
2022/05/14 06:38:06;;;;;;;2.08;0.93;;;16.70;99.90;;;;;;6067700;23;20013;-81
2022/05/14 06:40:33;;;;;;;3.30;1.02;;;16.70;99.90;;;;;;6067388;23;20102;-81
2022/05/14 06:42:59;;;;;;;2.97;1.00;;;16.80;99.90;;;;;;6093206;23;20067;-80
2022/05/14 06:45:25;;;;;;;4.53;1.08;;;16.80;99.90;;;;;;6067561;23;20006;-81
2022/05/14 06:47:51;;;;;;;4.90;1.13;;;16.80;99.90;;;;;;6067377;23;20007;-81
2022/05/14 06:50:18;;;;;;;3.10;0.90;;;16.80;99.90;;;;;;6067493;23;20347;-81
2022/05/14 06:52:48;;;;;;;5.80;0.90;;;16.80;99.90;;;;;;6067469;23;20003;-81
2022/05/14 06:55:17;;;;;;;1.65;1.00;;;16.80;99.90;;;;;;6067334;23;20427;-81
2022/05/14 06:57:43;;;;;;;6.43;0.80;;;16.90;99.90;;;;;;6092850;23;20018;-81
2022/05/14 07:00:09;;;;;;;3.28;1.15;;;16.90;99.90;;;;;;6092939;23;20017;-81
2022/05/14 07:02:36;;;;;;;5.55;0.85;;;16.90;99.90;;;;;;6067408;23;20011;-81
2022/05/14 07:07:47;;;;;;;3.80;1.10;;;16.90;99.90;;;;;;6093220;23;20096;-81
2022/05/14 07:10:13;;;;;;;6.47;0.98;;;16.90;99.90;;;;;;6067382;23;20028;-81
2022/05/14 07:12:39;;;;;;;2.45;0.93;;;16.90;99.90;;;;;;6093250;23;20009;-81
2022/05/14 07:15:06;;;;;;;2.65;1.05;;;16.90;99.90;;;;;;6067492;23;20060;-81
2022/05/14 07:17:32;;;;;;;5.28;0.98;;;16.90;99.90;;;;;;6067410;23;20002;-81
2022/05/14 07:19:58;;;;;;;5.32;0.95;;;17.00;99.90;;;;;;6093208;23;20010;-81
2022/05/14 07:22:24;;;;;;;3.88;0.75;;;17.00;99.90;;;;;;6067325;23;20014;-81
2022/05/14 07:24:50;;;;;;;5.13;1.08;;;17.00;99.90;;;;;;6067285;23;20038;-81
2022/05/14 07:27:17;;;;;;;2.05;0.88;;;17.00;99.90;;;;;;6092669;23;20002;-81
2022/05/14 07:29:45;;;;;;;1.75;0.93;;;17.00;99.90;;;;;;6067275;23;20460;-81
2022/05/14 07:32:17;;;;;;;3.28;1.00;;;17.00;99.90;;;;;;6092976;23;19998;-81
2022/05/14 07:34:43;;;;;;;1.65;0.82;;;17.10;99.90;;;;;;6092751;23;20308;-81
2022/05/14 07:37:27;;;;;;;3.67;1.17;;;17.10;99.90;;;;;;6093030;23;20482;-81
2022/05/14 07:40:06;;;;;;;2.92;0.80;;;17.10;99.90;;;;;;6092668;23;20006;-81
2022/05/14 07:42:48;;;;;;;3.20;1.00;;;17.10;99.90;;;;;;6067520;23;20414;-81
2022/05/14 07:45:21;;;;;;;2.40;1.10;;;17.10;99.90;;;;;;6092673;23;20426;-81
2022/05/14 07:47:47;;;;;;;1.73;0.90;;;17.20;99.90;;;;;;6067289;23;20003;-81
2022/05/14 07:50:13;;;;;;;4.30;1.25;;;17.20;99.90;;;;;;6092571;23;20002;-81
2022/05/14 07:52:40;;;;;;;3.05;0.80;;;17.20;99.90;;;;;;6067127;23;20029;-81
2022/05/14 07:55:07;;;;;;;2.00;0.82;;;17.20;99.90;;;;;;6068174;23;19999;-81
2022/05/14 07:57:33;;;;;;;1.30;0.70;;;17.30;99.90;;;;;;6093553;23;20014;-81
2022/05/14 07:59:58;;;;;;;3.05;0.90;;;17.30;99.90;;;;;;6068234;23;20011;-82
2022/05/14 08:02:31;;;;;;;1.88;0.80;;;17.30;99.90;;;;;;6093718;23;20008;-82
2022/05/14 08:04:58;;;;;;;1.38;0.70;;;17.30;99.90;;;;;;6093680;23;20342;-82
2022/05/14 08:07:24;;;;;;;4.07;1.05;;;17.40;99.90;;;;;;6068148;23;20096;-82
2022/05/14 08:09:50;;;;;;;1.95;0.70;;;17.40;99.90;;;;;;6093624;23;20087;-81
2022/05/14 08:12:15;;;;;;;3.72;0.95;;;17.40;99.90;;;;;;6068212;23;20080;-81
2022/05/14 08:14:41;;;;;;;4.28;1.38;;;17.40;99.90;;;;;;6093735;23;20010;-81
2022/05/14 08:17:11;;;;;;;1.90;0.75;;;17.50;99.90;;;;;;6068253;23;20003;-82
2022/05/14 08:19:37;;;;;;;1.98;0.70;;;17.50;99.90;;;;;;6068221;23;20010;-82
2022/05/14 08:24:48;;;;;;;16.58;1.70;;;17.60;99.90;;;;;;6094815;23;20373;-81
2022/05/14 08:27:14;;;;;;;9.18;1.48;;;18.00;99.90;;;;;;6068404;23;20007;-82
2022/05/14 08:29:40;;;;;;;6.47;1.45;;;18.50;99.60;;;;;;6067981;23;20491;-82
2022/05/14 08:32:07;;;;;;;5.78;1.08;;;18.90;98.60;;;;;;6068008;23;20003;-82
2022/05/14 08:34:33;;;;;;;4.97;0.90;;;19.20;98.60;;;;;;6067983;23;20346;-81
2022/05/14 08:36:59;;;;;;;6.72;0.80;;;19.40;97.90;;;;;;6067940;23;20459;-81
2022/05/14 08:39:27;;;;;;;12.82;1.20;;;19.60;96.90;;;;;;6093555;23;19998;-81
2022/05/14 08:41:54;;;;;;;9.43;1.30;;;19.40;97.30;;;;;;6067904;23;20006;-81
2022/05/14 08:44:32;;;;;;;14.88;1.17;;;19.20;97.80;;;;;;6093555;23;20010;-81
2022/05/14 08:47:06;;;;;;;8.07;1.60;;;19.00;98.30;;;;;;6067877;23;20085;-81
2022/05/14 08:49:35;;;;;;;5.43;1.00;;;18.80;98.50;;;;;;6093905;23;20346;-81
2022/05/14 08:52:04;;;;;;;21.02;1.45;;;18.80;98.80;;;;;;6093482;23;20427;-81
2022/05/14 08:54:30;;;;;;;5.43;0.93;;;18.60;99.30;;;;;;6067856;23;20057;-80
2022/05/14 08:56:55;;;;;;;7.30;1.00;;;18.60;99.50;;;;;;6067755;23;20026;-81
2022/05/14 08:59:26;;;;;;;6.45;1.23;;;18.50;99.70;;;;;;6068023;23;20006;-81
2022/05/14 09:01:58;;;;;;;5.18;0.80;;;18.50;99.80;;;;;;6093842;23;20545;-81
2022/05/14 09:04:24;;;;;;;4.72;0.90;;;18.60;98.50;;;;;;6067719;23;20430;-81
2022/05/14 09:06:50;;;;;;;5.05;1.10;;;18.60;98.70;;;;;;6067872;23;20093;-81
2022/05/14 09:09:17;;;;;;;5.65;1.05;;;18.60;99.20;;;;;;6067949;23;20006;-81
2022/05/14 09:11:58;;;;;;;5.78;0.77;;;18.60;99.20;;;;;;6067895;23;20006;-81
2022/05/14 09:14:28;;;;;;;3.58;0.75;;;18.60;99.80;;;;;;6067912;23;20003;-81
2022/05/14 09:17:05;;;;;;;2.97;0.90;;;18.50;99.90;;;;;;6067866;23;20014;-81
2022/05/14 09:19:40;;;;;;;4.82;1.20;;;18.50;99.90;;;;;;6068546;23;20033;-81
2022/05/14 09:22:43;;;;;;;5.22;1.10;;;18.50;99.90;;;;;;6093469;23;20062;-81
2022/05/14 09:25:34;;;;;;;2.75;0.93;;;18.50;99.90;;;;;;6067851;23;19999;-81
2022/05/14 09:28:04;;;;;;;3.00;0.80;;;18.50;99.90;;;;;;6067855;23;20014;-81
2022/05/14 09:30:35;;;;;;;6.38;1.10;;;18.50;99.90;;;;;;6067868;23;20011;-81
2022/05/14 09:33:01;;;;;;;4.72;1.02;;;18.50;99.90;;;;;;6093467;23;20455;-81
2022/05/14 09:35:32;;;;;;;2.38;0.73;;;18.50;99.90;;;;;;6093467;23;20010;-81
2022/05/14 09:38:18;;;;;;;4.85;1.10;;;18.50;99.90;;;;;;6067858;23;20342;-81
2022/05/14 09:40:44;;;;;;;5.65;1.02;;;18.60;99.90;;;;;;6067830;23;20031;-81
2022/05/14 09:43:12;;;;;;;2.40;0.60;;;18.60;99.90;;;;;;6067746;23;20014;-81
2022/05/14 09:45:41;;;;;;;3.40;1.08;;;18.60;99.90;;;;;;6093344;23;20002;-81
2022/05/14 09:48:15;;;;;;;3.80;0.80;;;18.60;99.90;;;;;;6093760;23;20006;-81
2022/05/14 09:50:42;;;;;;;2.10;0.70;;;18.60;99.90;;;;;;6067862;23;20397;-81
2022/05/14 09:53:08;;;;;;;4.82;0.93;;;18.60;99.90;;;;;;6093413;23;20327;-81
2022/05/14 09:56:12;;;;;;;4.13;1.05;;;18.70;99.90;;;;;;6067349;23;20079;-81
2022/05/14 09:58:43;;;;;;;2.95;0.90;;;18.70;99.90;;;;;;6109202;23;20011;-81
2022/05/14 10:01:12;;;;;;;3.33;0.70;;;18.70;99.90;;;;;;6067771;23;20002;-81
2022/05/14 10:03:53;;;;;;;4.30;0.68;;;18.80;99.90;;;;;;6067770;23;20320;-81
2022/05/14 10:06:24;;;;;;;3.05;1.00;;;18.70;99.90;;;;;;6067749;23;20030;-82
2022/05/14 10:09:17;;;;;;;2.38;0.75;;;18.70;99.90;;;;;;6067686;23;20007;-81
2022/05/14 10:12:00;;;;;;;3.20;0.75;;;18.80;99.90;;;;;;6067591;23;20007;-81
2022/05/14 10:14:53;;;;;;;3.10;0.90;;;18.80;99.90;;;;;;6093330;23;20007;-82
2022/05/14 10:17:21;;;;;;;1.95;0.70;;;18.80;99.90;;;;;;6067354;23;20013;-81
2022/05/14 10:20:03;;;;;;;2.47;0.70;;;18.80;99.90;;;;;;6067662;23;20049;-81
2022/05/14 10:26:44;;;;;;;4.97;1.08;;;18.80;99.90;;;;;;6067937;23;20124;-81
2022/05/14 10:28:15;;;;;;;5.28;0.70;;;18.90;99.90;;;;;;6093482;23;20018;-82
2022/05/14 10:30:47;;;;;;;5.50;0.98;;;18.90;99.90;;;;;;6093323;23;20005;-81
2022/05/14 10:33:18;;;;;;;3.67;1.00;;;18.90;99.90;;;;;;6067683;23;20056;-81
2022/05/14 10:35:54;;;;;;;5.35;1.20;;;18.90;99.90;;;;;;6067632;23;20013;-81
2022/05/14 10:38:25;;;;;;;2.63;0.75;;;18.90;99.90;;;;;;6093254;23;20439;-81
2022/05/14 10:40:55;;;;;;;3.90;0.80;;;18.90;99.90;;;;;;6067574;23;20013;-81
2022/05/14 10:43:48;;;;;;;2.17;0.85;;;18.90;99.90;;;;;;6093534;23;20434;-81
2022/05/14 10:46:18;;;;;;;4.05;0.82;;;18.90;99.90;;;;;;6093371;23;20088;-82
2022/05/14 10:49:05;;;;;;;4.45;1.00;;;19.00;99.90;;;;;;6093024;23;19999;-81
2022/05/14 10:51:36;;;;;;;3.80;1.00;;;19.00;99.90;;;;;;6067666;23;20030;-81
2022/05/14 10:54:03;;;;;;;3.13;0.80;;;19.00;99.90;;;;;;6093560;23;20006;-81
2022/05/14 10:56:34;;;;;;;5.82;0.93;;;19.00;99.90;;;;;;6092682;23;20485;-82
2022/05/14 10:59:05;;;;;;;3.55;0.80;;;19.10;99.90;;;;;;6067567;23;20397;-81
2022/05/14 11:01:41;;;;;;;4.70;0.60;;;19.10;99.90;;;;;;6093074;23;20006;-81
2022/05/14 11:04:26;;;;;;;2.13;0.77;;;19.10;99.90;;;;;;6067407;23;20381;-82
2022/05/14 11:06:54;;;;;;;;;;;19.10;99.90;;;;;;6067945;23;20006;-82
2022/05/14 11:09:32;;;;;;;1.98;0.80;;;19.10;99.90;;;;;;6067508;23;19933;-81
2022/05/14 11:12:02;;;;;;;1.77;0.75;;;19.10;99.90;;;;;;6093319;23;20007;-81
2022/05/14 11:14:41;;;;;;;1.75;0.75;;;19.20;99.90;;;;;;6067339;23;20132;-81
2022/05/14 11:17:24;;;;;;;4.43;0.82;;;19.20;99.90;;;;;;6092991;23;20028;-82
2022/05/14 11:20:11;;;;;;;2.35;1.00;;;19.20;99.90;;;;;;6092923;23;20003;-81
2022/05/14 11:22:49;;;;;;;1.90;0.70;;;19.20;99.90;;;;;;6067311;23;20377;-82
2022/05/14 11:25:21;;;;;;;1.65;0.63;;;19.30;99.90;;;;;;6067448;23;20020;-82
2022/05/14 11:28:04;;;;;;;5.10;0.80;;;19.30;99.90;;;;;;6092686;23;20077;-81
2022/05/14 11:30:46;;;;;;;5.22;0.70;;;19.30;99.90;;;;;;6067388;23;20014;-82
2022/05/14 11:33:17;;;;;;;3.25;0.60;;;19.30;99.90;;;;;;6093132;23;20090;-82
2022/05/14 11:35:44;;;;;;;2.08;0.80;;;19.30;99.90;;;;;;6067293;23;20042;-82
2022/05/14 11:38:29;;;;;;;2.22;0.82;;;19.30;99.90;;;;;;6092677;23;20006;-82
2022/05/14 11:40:56;;;;;;;;;;;19.30;99.90;;;;;;6067680;23;20010;-82
2022/05/14 11:43:27;;;;;;;2.88;0.88;;;19.30;99.90;;;;;;6093107;23;20330;-82
2022/05/14 11:46:16;;;;;;;4.30;0.90;;;19.30;99.90;;;;;;6092948;23;20090;-82
2022/05/14 11:48:56;;;;;;;1.77;0.80;;;19.40;99.90;;;;;;6067088;23;20013;-82
2022/05/14 11:51:28;;;;;;;3.08;1.00;;;19.30;99.90;;;;;;6093031;23;20006;-82
2022/05/14 11:54:09;;;;;;;2.13;0.52;;;19.40;99.90;;;;;;6067150;23;20013;-82
2022/05/14 11:57:07;;;;;;;2.95;0.90;;;19.40;99.90;;;;;;6066932;23;20443;-82
2022/05/14 12:00:01;;;;;;;2.95;0.98;;;19.40;99.90;;;;;;6092580;23;20074;-82
2022/05/14 12:02:53;;;;;;;5.30;0.77;;;19.40;99.90;;;;;;6066918;23;20009;-82
2022/05/14 12:05:29;;;;;;;4.32;0.93;;;19.50;99.90;;;;;;6067015;23;20477;-81
2022/05/14 12:08:27;;;;;;;4.90;1.00;;;19.50;99.90;;;;;;6066933;23;20010;-82
2022/05/14 12:10:59;;;;;;;2.88;0.82;;;19.50;99.90;;;;;;6109282;23;20078;-82
2022/05/14 12:13:50;;;;;;;6.60;1.27;;;19.50;99.90;;;;;;6066986;23;20006;-81
2022/05/14 12:16:16;;;;;;;6.25;0.80;;;19.50;99.90;;;;;;6092867;23;19999;-82
2022/05/14 12:18:43;;;;;;;3.90;0.60;;;19.50;99.90;;;;;;6092422;23;20370;-82
2022/05/14 12:21:10;;;;;;;3.97;0.80;;;19.60;99.90;;;;;;6066797;23;20010;-82
2022/05/14 12:23:45;;;;;;;4.10;0.75;;;19.60;99.90;;;;;;6066827;23;20439;-82
2022/05/14 12:26:19;;;;;;;2.20;0.70;;;19.60;99.90;;;;;;6092461;23;20010;-82
2022/05/14 12:28:47;;;;;;;3.88;0.90;;;19.70;99.90;;;;;;6092306;23;20003;-81
2022/05/14 12:33:58;;;;;;;;;;;21.30;98.10;;;;;;6092852;23;20013;-82
2022/05/14 12:36:27;;;;;;;10.30;1.10;;;21.60;97.40;;;;;;6092297;23;19901;-81
2022/05/14 12:38:53;;;;;;;5.05;0.80;;;21.40;97.60;;;;;;6092654;23;20006;-81
2022/05/14 12:41:25;;;;;;;3.30;0.82;;;21.10;97.80;;;;;;6093623;23;20010;-82
2022/05/14 12:43:51;;;;;;;3.50;0.90;;;20.90;98.10;;;;;;6093584;23;20009;-82
2022/05/14 12:46:19;;;;;;;3.90;0.90;;;20.70;98.30;;;;;;6093935;23;20125;-82
2022/05/14 12:48:50;;;;;;;4.63;1.10;;;20.70;98.40;;;;;;6068052;23;20037;-82
2022/05/14 12:51:21;;;;;;;3.92;1.02;;;20.70;98.50;;;;;;6068118;23;20090;-82
2022/05/14 12:53:48;;;;;;;3.38;1.00;;;20.70;98.50;;;;;;6068100;23;20006;-82
2022/05/14 12:56:17;;;;;;;4.20;0.95;;;20.80;98.50;;;;;;6093227;23;20338;-83
2022/05/14 12:58:43;;;;;;;2.22;0.93;;;20.80;98.40;;;;;;6067986;23;20422;-82
2022/05/14 13:01:10;;;;;;;4.88;1.02;;;20.90;98.30;;;;;;6093603;23;20075;-82
2022/05/14 13:03:39;;;;;;;2.50;0.82;;;21.00;98.10;;;;;;6093550;23;20006;-82
2022/05/14 13:06:16;;;;;;;3.33;0.90;;;21.10;98.10;;;;;;6068015;23;20323;-82
2022/05/14 13:08:49;;;;;;;2.83;0.95;;;21.20;98.00;;;;;;6067924;23;20038;-82
2022/05/14 13:11:21;;;;;;;4.57;1.10;;;21.20;97.90;;;;;;6068016;23;20438;-82
2022/05/14 13:13:52;;;;;;;3.35;1.00;;;21.30;97.90;;;;;;6067926;23;20009;-82
2022/05/14 13:16:19;;;;;;;5.35;1.00;;;21.40;97.80;;;;;;6068042;23;20006;-82
2022/05/14 13:19:04;;;;;;;3.35;1.00;;;21.40;97.80;;;;;;6067995;23;20013;-82
2022/05/14 13:21:34;;;;;;;5.38;1.10;;;21.40;97.70;;;;;;6093895;23;19999;-82
2022/05/14 13:24:17;;;;;;;5.28;1.00;;;21.50;97.60;;;;;;6068117;23;20014;-82